Time;durP1;ratioP1;P1;durP2;ratioP2;P2;SDS_P1;SDS_P2;PMS_P1;PMS_P2;Temp;Humidity;BMP_temperature;BMP_pressure;BME280_temperature;BME280_humidity;BME280_pressure;Samples;Min_cycle;Max_cycle;Signal;HPM_P1;HPM_P2
2022/07/28 00:02:14;;;;;;;8.80;5.93;;;;;;;28.84;42.50;99242.53;5053602;28;20025;-44
2022/07/28 00:04:39;;;;;;;7.32;5.60;;;;;;;29.07;41.95;99247.59;5053639;28;20471;-45
2022/07/28 00:07:05;;;;;;;7.43;5.75;;;;;;;29.00;42.27;99250.09;5053108;28;20098;-44
2022/07/28 00:09:30;;;;;;;9.27;5.93;;;;;;;28.59;43.43;99254.53;5052959;28;20036;-45
2022/07/28 00:11:56;;;;;;;6.53;5.82;;;;;;;28.51;43.65;99258.91;5052845;28;20049;-44
2022/07/28 00:14:22;;;;;;;7.22;5.80;;;;;;;28.75;42.99;99262.91;5053087;28;20025;-45
2022/07/28 00:16:48;;;;;;;7.97;5.78;;;;;;;29.10;42.42;99263.34;5053165;28;20048;-45
2022/07/28 00:19:14;;;;;;;7.13;5.85;;;;;;;28.63;43.41;99263.66;5052480;28;20056;-43
2022/07/28 00:21:39;;;;;;;7.03;5.80;;;;;;;28.55;43.53;99264.53;5053421;28;20021;-45
2022/07/28 00:24:05;;;;;;;8.35;5.70;;;;;;;28.39;43.79;99265.13;5053530;28;20076;-43
2022/07/28 00:26:31;;;;;;;9.15;6.07;;;;;;;29.19;41.73;99272.31;5053168;28;20025;-43
2022/07/28 00:28:56;;;;;;;7.57;5.70;;;;;;;28.61;43.59;99277.66;5052923;28;20025;-44
2022/07/28 00:31:22;;;;;;;8.27;5.70;;;;;;;28.37;44.06;99278.34;5053472;28;20049;-44
2022/07/28 00:33:47;;;;;;;8.02;6.20;;;;;;;28.39;43.72;99275.28;5053364;28;20447;-43
2022/07/28 00:36:13;;;;;;;7.28;6.00;;;;;;;29.03;41.97;99279.53;5053212;28;20469;-46
2022/07/28 00:38:39;;;;;;;6.45;5.63;;;;;;;28.39;43.29;99278.81;5052848;28;20033;-43
2022/07/28 00:41:11;;;;;;;8.57;5.95;;;;;;;28.48;42.99;99281.44;5053215;28;20048;-43
2022/07/28 00:43:37;;;;;;;7.60;5.70;;;;;;;28.46;43.05;99279.06;5052896;28;20655;-43
2022/07/28 00:46:03;;;;;;;7.55;6.00;;;;;;;29.02;41.86;99286.97;5053119;28;20051;-43
2022/07/28 00:48:28;;;;;;;6.10;5.45;;;;;;;28.61;42.51;99285.09;5052927;28;20017;-44
2022/07/28 00:50:54;;;;;;;10.80;5.70;;;;;;;28.49;42.79;99285.81;5052790;28;20021;-43
2022/07/28 00:53:20;;;;;;;8.35;5.93;;;;;;;28.45;42.98;99284.88;5052899;28;20040;-44
2022/07/28 00:55:46;;;;;;;11.23;5.55;;;;;;;28.76;42.14;99286.41;5052509;28;20025;-43
2022/07/28 00:58:11;;;;;;;7.30;5.60;;;;;;;28.75;41.97;99287.53;5037612;28;20032;-44
2022/07/28 01:00:37;;;;;;;6.18;5.57;;;;;;;28.34;42.20;99273.53;5032423;28;20021;-43
2022/07/28 01:03:04;;;;;;;8.23;5.80;;;;;;;28.44;42.58;99286.00;5033001;28;20057;-43
2022/07/28 01:05:41;;;;;;;6.30;5.10;;;;;;;28.44;41.96;99288.72;5032984;28;20025;-43
2022/07/28 01:08:17;;;;;;;7.13;5.18;;;;;;;28.34;42.16;99286.41;5032815;28;20030;-43
2022/07/28 01:11:14;;;;;;;7.05;5.00;;;;;;;28.19;42.20;99283.13;5032724;28;20063;-43
2022/07/28 01:13:48;;;;;;;5.90;5.07;;;;;;;28.22;42.14;99278.94;5032462;28;20114;-49
2022/07/28 01:16:14;;;;;;;6.18;4.72;;;;;;;28.65;41.03;99281.38;5032710;28;20427;-44
2022/07/28 01:18:46;;;;;;;10.02;5.00;;;;;;;28.39;41.25;99287.00;5032437;28;20160;-43
2022/07/28 01:21:15;;;;;;;6.03;4.82;;;;;;;28.18;41.64;99292.47;5032841;28;20095;-43
2022/07/28 01:23:57;;;;;;;6.80;4.80;;;;;;;28.25;41.46;99291.94;5032117;28;20033;-44
2022/07/28 01:26:37;;;;;;;6.28;5.00;;;;;;;28.25;41.46;99297.41;5032771;28;20104;-44
2022/07/28 01:29:28;;;;;;;6.30;4.75;;;;;;;27.94;42.33;99308.72;5032496;28;20021;-45
2022/07/28 01:32:00;;;;;;;5.90;5.00;;;;;;;28.00;42.66;99308.16;5032395;28;20025;-44
2022/07/28 01:34:33;;;;;;;6.05;5.00;;;;;;;28.17;42.29;99312.75;5032077;28;20071;-45
2022/07/28 01:37:10;;;;;;;9.27;5.20;;;;;;;27.94;42.60;99306.75;5032446;28;20022;-46
2022/07/28 01:39:38;;;;;;;7.68;5.35;;;;;;;27.46;43.74;99318.84;5032114;28;20564;-46
2022/07/28 01:42:06;;;;;;;7.40;5.20;;;;;;;27.57;43.44;99311.91;5032158;28;20026;-43
2022/07/28 01:44:35;;;;;;;6.75;5.05;;;;;;;27.68;42.61;99307.69;5031901;28;20276;-42
2022/07/28 01:47:06;;;;;;;6.43;5.40;;;;;;;28.08;41.60;99304.59;5031762;28;20112;-46
2022/07/28 01:49:33;;;;;;;8.05;5.10;;;;;;;27.71;42.12;99305.41;5032027;28;20515;-44
2022/07/28 01:52:01;;;;;;;9.75;4.82;;;;;;;27.68;42.22;99307.69;5032418;28;20086;-46
2022/07/28 01:54:29;;;;;;;6.40;4.97;;;;;;;27.91;41.71;99309.34;5031571;28;20018;-44
2022/07/28 01:56:57;;;;;;;10.18;5.20;;;;;;;28.03;41.25;99310.25;5031893;28;20030;-44
2022/07/28 01:59:26;;;;;;;7.97;5.47;;;;;;;27.78;42.04;99311.97;5031678;28;20032;-43
2022/07/28 02:01:53;;;;;;;6.55;5.35;;;;;;;27.64;42.41;99317.63;5031764;28;20033;-44
2022/07/28 02:04:21;;;;;;;8.85;5.32;;;;;;;27.72;42.41;99313.28;5031483;28;20063;-42
2022/07/28 02:06:49;;;;;;;7.18;5.53;;;;;;;28.19;41.25;99313.22;5031818;28;20106;-44
2022/07/28 02:09:16;;;;;;;7.32;5.50;;;;;;;28.05;41.72;99309.94;5031116;28;20571;-45
2022/07/28 02:11:45;;;;;;;7.05;5.43;;;;;;;27.66;42.67;99309.13;5031585;28;20413;-44
2022/07/28 02:14:19;;;;;;;7.57;5.30;;;;;;;27.77;42.47;99310.34;5031753;28;20139;-43
2022/07/28 02:16:48;;;;;;;6.25;5.40;;;;;;;28.19;41.37;99305.00;5031320;28;20493;-43
2022/07/28 02:19:16;;;;;;;7.72;5.75;;;;;;;27.87;41.95;99301.81;5048208;28;20025;-42
2022/07/28 02:21:46;;;;;;;6.93;5.70;;;;;;;27.62;42.14;99313.63;5051279;28;20112;-42
2022/07/28 02:24:13;;;;;;;8.55;6.40;;;;;;;27.65;42.34;99310.25;5044743;28;20028;-37
2022/07/28 02:26:43;;;;;;;11.15;6.32;;;;;;;27.96;41.72;99311.91;5030629;28;20021;-37
2022/07/28 02:29:12;;;;;;;9.98;7.30;;;;;;;27.93;42.00;99310.66;5031245;28;20053;-38
2022/07/28 02:31:49;;;;;;;11.55;6.70;;;;;;;27.56;42.71;99313.00;5031118;28;20067;-45
2022/07/28 02:34:15;;;;;;;7.88;6.50;;;;;;;27.88;42.11;99314.34;5030861;28;20567;-44
2022/07/28 02:36:48;;;;;;;8.05;6.68;;;;;;;28.24;41.31;99317.69;5030800;28;20053;-45
2022/07/28 02:39:22;;;;;;;7.20;6.10;;;;;;;28.12;41.46;99317.59;5030809;28;20448;-43
2022/07/28 02:41:54;;;;;;;8.13;6.20;;;;;;;27.83;42.33;99313.72;5031346;28;20036;-44
2022/07/28 02:44:27;;;;;;;10.57;6.65;;;;;;;27.80;42.38;99312.44;5030927;28;20336;-44
2022/07/28 02:46:56;;;;;;;13.13;5.82;;;;;;;28.07;41.79;99316.66;5031012;28;20159;-43
2022/07/28 02:49:29;;;;;;;;;;;;;;;27.78;42.30;99314.69;5031346;28;20413;-45
2022/07/28 02:51:56;;;;;;;11.27;6.72;;;;;;;27.66;42.62;99320.03;5031275;28;20020;-45
2022/07/28 02:54:25;;;;;;;13.73;6.97;;;;;;;27.72;42.50;99320.66;5030981;28;20056;-43
2022/07/28 02:56:52;;;;;;;10.73;6.60;;;;;;;28.07;41.60;99327.59;5031200;28;20362;-44
2022/07/28 02:59:19;;;;;;;9.95;6.57;;;;;;;27.97;41.69;99297.91;5030821;28;20022;-44
2022/07/28 03:01:46;;;;;;;8.57;6.60;;;;;;;27.74;42.49;99326.59;5030839;28;20025;-43
2022/07/28 03:04:13;;;;;;;9.82;6.63;;;;;;;27.77;42.40;99323.22;5030396;28;20060;-42
2022/07/28 03:06:39;;;;;;;18.63;15.38;;;;;;;27.78;42.54;99322.91;5031024;28;20098;-42
2022/07/28 03:09:07;;;;;;;11.65;8.40;;;;;;;28.13;41.88;99330.16;5030314;28;20171;-44
2022/07/28 03:11:33;;;;;;;16.83;14.32;;;;;;;27.64;42.90;99311.38;5030854;28;20049;-43
2022/07/28 03:13:58;;;;;;;15.57;11.70;;;;;;;27.68;42.81;99309.59;5028403;28;20083;-43
2022/07/28 03:16:24;;;;;;;23.92;19.73;;;;;;;27.78;42.60;99311.97;5029388;28;20021;-41
2022/07/28 03:18:50;;;;;;;54.70;45.83;;;;;;;28.31;41.25;99309.78;5030978;28;20041;-43
2022/07/28 03:21:15;;;;;;;10.73;6.85;;;;;;;27.66;42.63;99311.84;5030386;28;20025;-44
2022/07/28 03:23:46;;;;;;;8.80;6.80;;;;;;;27.46;43.10;99316.91;5030685;28;20405;-42
2022/07/28 03:26:39;;;;;;;8.02;6.45;;;;;;;27.47;42.92;99317.72;5030624;28;20028;-44
2022/07/28 03:29:06;;;;;;;9.75;6.90;;;;;;;27.39;43.07;99319.34;5030684;28;20110;-44
2022/07/28 03:31:34;;;;;;;8.57;6.75;;;;;;;27.48;42.86;99314.66;5030702;28;20568;-44
2022/07/28 03:34:00;;;;;;;10.73;6.80;;;;;;;27.32;43.32;99319.03;5030855;28;20025;-42
2022/07/28 03:36:34;;;;;;;11.13;6.88;;;;;;;27.43;43.21;99323.00;5030160;28;20024;-43
2022/07/28 03:39:03;;;;;;;8.75;6.82;;;;;;;27.41;43.30;99327.22;5029041;28;20087;-44
2022/07/28 03:41:31;;;;;;;9.35;6.88;;;;;;;27.99;42.01;99325.72;5030222;28;20382;-44
2022/07/28 03:43:57;;;;;;;9.13;7.15;;;;;;;27.50;43.50;99333.47;5029914;28;20554;-44
2022/07/28 03:46:24;;;;;;;11.15;7.13;;;;;;;27.27;44.24;99327.41;5029542;28;20033;-43
2022/07/28 03:48:49;;;;;;;10.93;7.43;;;;;;;27.10;44.44;99331.75;5030397;28;20032;-42
2022/07/28 03:51:15;;;;;;;11.73;7.35;;;;;;;27.04;45.12;99333.03;5028491;28;20029;-43
2022/07/28 03:53:41;;;;;;;13.05;7.00;;;;;;;27.34;44.30;99333.19;5029707;28;20048;-41
2022/07/28 03:56:07;;;;;;;17.45;6.90;;;;;;;27.61;44.29;99337.44;5029805;28;20061;-42
2022/07/28 03:58:32;;;;;;;13.90;7.32;;;;;;;27.86;43.40;99332.19;5029537;28;20041;-41
2022/07/28 04:00:58;;;;;;;11.57;7.03;;;;;;;28.03;43.21;99334.88;5029811;28;20026;-41
2022/07/28 04:03:24;;;;;;;13.75;6.90;;;;;;;29.01;41.32;99334.63;5036661;28;20074;-41
2022/07/28 04:05:49;;;;;;;13.15;7.15;;;;;;;27.77;44.03;99331.44;5049553;28;20027;-42
2022/07/28 04:08:15;;;;;;;11.43;6.90;;;;;;;27.61;44.26;99351.09;5049524;28;20100;-44
2022/07/28 04:10:40;;;;;;;12.10;7.10;;;;;;;27.49;44.84;99356.44;5049380;28;20102;-42
2022/07/28 04:13:06;;;;;;;12.43;7.28;;;;;;;27.60;43.54;99349.47;5050016;28;20032;-44
2022/07/28 04:15:32;;;;;;;11.05;7.28;;;;;;;27.77;43.84;99361.50;5049235;28;20053;-43
2022/07/28 04:17:58;;;;;;;14.43;7.18;;;;;;;28.18;43.14;99358.13;5049436;28;20034;-43
2022/07/28 04:20:26;;;;;;;14.63;7.18;;;;;;;28.80;41.59;99373.00;5049433;28;20029;-43
2022/07/28 04:22:53;;;;;;;11.40;7.10;;;;;;;28.23;42.78;99365.31;5049304;28;20025;-43
2022/07/28 04:25:23;;;;;;;13.85;9.00;;;;;;;28.15;43.50;99374.38;5049305;28;20137;-42
2022/07/28 04:27:49;;;;;;;14.60;8.30;;;;;;;28.13;44.18;99373.91;5049019;28;20024;-42
2022/07/28 04:30:16;;;;;;;11.57;6.63;;;;;;;28.33;43.65;99381.38;5049277;28;20029;-43
2022/07/28 04:32:44;;;;;;;11.35;6.65;;;;;;;28.56;43.38;99389.28;5050642;28;20017;-43
2022/07/28 04:35:10;;;;;;;13.98;7.22;;;;;;;29.26;42.37;99396.97;5053209;28;20021;-43
2022/07/28 04:37:36;;;;;;;14.77;7.30;;;;;;;29.10;42.81;99383.88;5046803;28;20083;-43
2022/07/28 04:40:03;;;;;;;17.08;7.80;;;;;;;29.12;41.69;99395.28;5044785;28;20052;-45
2022/07/28 04:42:28;;;;;;;18.27;7.90;;;;;;;29.16;41.54;99393.50;5053316;28;20496;-43
2022/07/28 04:44:54;;;;;;;13.98;8.27;;;;;;;29.70;40.73;99391.84;5040779;28;20029;-43
2022/07/28 04:47:19;;;;;;;16.70;7.72;;;;;;;30.09;39.78;99408.84;5033720;28;20497;-42
2022/07/28 04:49:45;;;;;;;12.23;7.85;;;;;;;30.13;39.54;99410.53;5033284;28;20034;-43
2022/07/28 04:52:11;;;;;;;15.50;8.10;;;;;;;30.38;39.20;99416.84;5032813;28;20025;-42
2022/07/28 04:54:37;;;;;;;14.48;8.05;;;;;;;30.20;39.61;99415.47;5033070;28;20060;-42
2022/07/28 04:57:03;;;;;;;16.45;8.35;;;;;;;30.14;40.40;99417.63;5033470;28;20532;-46
2022/07/28 04:59:28;;;;;;;14.75;8.05;;;;;;;30.14;40.62;99417.63;5033583;28;20041;-44
2022/07/28 05:01:56;;;;;;;13.20;8.48;;;;;;;30.28;40.30;99425.50;5031042;28;20037;-43
2022/07/28 05:04:21;;;;;;;13.43;8.35;;;;;;;30.54;39.57;99416.13;5032482;28;20496;-43
2022/07/28 05:06:47;;;;;;;16.83;8.45;;;;;;;31.37;37.59;99413.84;5032938;28;20025;-44
2022/07/28 05:09:12;;;;;;;11.25;7.95;;;;;;;31.31;37.83;99424.31;5032798;28;20041;-42
2022/07/28 05:11:38;;;;;;;13.57;8.30;;;;;;;31.26;37.92;99426.50;5032521;28;20065;-43
2022/07/28 05:14:04;;;;;;;10.77;7.53;;;;;;;31.29;36.96;99418.34;5032974;28;20418;-43
2022/07/28 05:16:29;;;;;;;12.95;7.85;;;;;;;31.77;37.00;99421.22;5046953;28;20029;-45
2022/07/28 05:18:54;;;;;;;14.50;7.80;;;;;;;32.12;36.58;99415.03;5036312;28;20468;-43
2022/07/28 05:21:20;;;;;;;11.13;7.88;;;;;;;32.65;36.25;99422.97;5036230;28;20033;-46
2022/07/28 05:23:45;;;;;;;11.38;7.65;;;;;;;32.69;35.33;99429.34;5039526;28;20017;-44
2022/07/28 05:26:11;;;;;;;9.55;7.20;;;;;;;32.62;35.45;99412.69;5052290;28;20345;-45
2022/07/28 05:28:36;;;;;;;15.10;7.55;;;;;;;32.83;35.27;99415.09;5051279;28;20028;-43
2022/07/28 05:31:02;;;;;;;9.65;7.28;;;;;;;32.80;35.56;99415.81;5051047;28;20525;-41
2022/07/28 05:33:28;;;;;;;8.82;7.10;;;;;;;33.00;35.45;99422.94;5050189;28;20162;-43
2022/07/28 05:35:58;;;;;;;14.55;7.30;;;;;;;32.28;36.59;99415.03;5050959;28;20444;-43
2022/07/28 05:38:25;;;;;;;12.05;7.07;;;;;;;32.72;35.31;99423.91;5051268;28;20036;-45
2022/07/28 05:40:51;;;;;;;7.75;6.50;;;;;;;33.15;35.23;99420.47;5050577;28;20028;-44
2022/07/28 05:43:17;;;;;;;10.75;6.30;;;;;;;33.73;34.28;99427.91;5049963;28;20308;-45
2022/07/28 05:45:42;;;;;;;10.30;6.85;;;;;;;34.17;33.29;99425.50;5049281;28;20477;-43
2022/07/28 05:48:08;;;;;;;12.02;6.60;;;;;;;34.42;32.99;99416.81;5050614;28;20021;-43
2022/07/28 05:50:33;;;;;;;11.43;6.47;;;;;;;34.24;33.35;99422.09;5050215;28;20028;-43
2022/07/28 05:52:59;;;;;;;9.45;6.10;;;;;;;34.36;33.30;99419.09;5050311;28;20022;-46
2022/07/28 05:55:24;;;;;;;7.90;5.72;;;;;;;34.83;32.35;99423.34;5050828;28;20020;-43
2022/07/28 05:57:50;;;;;;;8.05;5.50;;;;;;;33.82;33.62;99420.97;5051699;28;20551;-43
2022/07/28 06:00:18;;;;;;;7.75;6.30;;;;;;;34.59;32.76;99410.75;5051708;28;20024;-44
2022/07/28 06:02:45;;;;;;;8.77;6.30;;;;;;;34.01;33.44;99419.31;5048341;28;20029;-44
2022/07/28 06:05:11;;;;;;;10.15;6.13;;;;;;;34.67;32.27;99411.66;5031617;28;20123;-43
2022/07/28 06:07:37;;;;;;;9.02;5.80;;;;;;;35.10;32.19;99408.66;5031160;28;20025;-43
2022/07/28 06:10:03;;;;;;;11.77;6.30;;;;;;;35.29;31.38;99410.47;5030474;28;20253;-47
2022/07/28 06:12:29;;;;;;;11.20;6.15;;;;;;;35.55;31.16;99404.81;5031720;28;20029;-46
2022/07/28 06:14:54;;;;;;;11.73;5.95;;;;;;;35.42;31.23;99412.59;5032591;28;20025;-45
2022/07/28 06:17:20;;;;;;;10.00;5.70;;;;;;;35.75;30.98;99413.72;5051480;28;20036;-43
2022/07/28 06:19:45;;;;;;;10.20;5.55;;;;;;;35.95;30.61;99413.50;5051539;28;20408;-44
2022/07/28 06:22:11;;;;;;;9.40;5.90;;;;;;;35.73;30.97;99418.06;5051042;28;20412;-46
2022/07/28 06:24:36;;;;;;;8.40;6.00;;;;;;;36.65;29.96;99424.69;5051092;28;20408;-44
2022/07/28 06:27:02;;;;;;;9.15;5.75;;;;;;;36.08;30.23;99422.28;5050638;28;20037;-45
2022/07/28 06:29:29;;;;;;;9.07;5.95;;;;;;;35.38;31.20;99419.28;5051304;28;20413;-44
2022/07/28 06:31:54;;;;;;;10.13;6.03;;;;;;;36.06;30.56;99419.13;5051111;28;20031;-44
2022/07/28 06:34:20;;;;;;;8.82;5.93;;;;;;;36.51;30.19;99415.09;5050756;28;20099;-43
2022/07/28 06:36:45;;;;;;;7.45;5.80;;;;;;;37.20;29.20;99419.03;5050488;28;20028;-43
2022/07/28 06:39:11;;;;;;;9.93;6.32;;;;;;;37.22;29.24;99418.63;5050969;28;20028;-44
2022/07/28 06:41:42;;;;;;;10.27;6.00;;;;;;;36.70;29.89;99411.28;5049314;28;20461;-42
2022/07/28 06:44:10;;;;;;;10.07;6.40;;;;;;;36.66;29.65;99416.00;5050483;28;20029;-42
2022/07/28 06:46:36;;;;;;;6.65;6.00;;;;;;;37.41;28.81;99411.94;5050538;28;20028;-43
2022/07/28 06:49:03;;;;;;;10.13;6.18;;;;;;;37.74;28.42;99413.63;5050445;28;20139;-43
2022/07/28 06:51:29;;;;;;;7.80;6.20;;;;;;;37.63;28.45;99408.03;5050263;28;20120;-43
2022/07/28 06:53:56;;;;;;;12.90;8.18;;;;;;;37.67;28.28;99400.50;5050097;28;20036;-43
2022/07/28 06:56:21;;;;;;;13.55;6.93;;;;;;;37.95;27.40;99410.84;5049447;28;20029;-43
2022/07/28 06:58:47;;;;;;;9.50;6.20;;;;;;;38.77;26.92;99405.56;5049875;28;20031;-42
2022/07/28 07:01:13;;;;;;;7.43;6.22;;;;;;;38.05;27.98;99394.56;5050252;28;20036;-44
2022/07/28 07:03:41;;;;;;;7.05;6.03;;;;;;;37.91;27.91;99398.16;5050200;28;20074;-45
2022/07/28 07:06:06;;;;;;;12.33;6.77;;;;;;;38.25;27.25;99397.72;5050065;28;20028;-43
2022/07/28 07:08:32;;;;;;;11.13;7.53;;;;;;;38.30;27.22;99397.31;5049988;28;20272;-42
2022/07/28 07:10:57;;;;;;;11.88;7.57;;;;;;;38.26;27.07;99404.88;5050145;28;20053;-47
2022/07/28 07:13:23;;;;;;;8.52;6.90;;;;;;;37.64;28.66;99401.31;5050311;28;20463;-43
2022/07/28 07:15:49;;;;;;;9.40;7.13;;;;;;;37.94;27.77;99398.13;5050343;28;20028;-46
2022/07/28 07:18:14;;;;;;;8.93;6.10;;;;;;;38.21;27.61;99403.28;5050428;28;20033;-43
2022/07/28 07:20:40;;;;;;;9.50;6.85;;;;;;;38.31;27.05;99393.38;5049847;28;20018;-44
2022/07/28 07:23:05;;;;;;;9.27;7.40;;;;;;;38.08;27.49;99394.59;5050006;28;20032;-43
2022/07/28 07:25:31;;;;;;;7.25;6.55;;;;;;;38.05;27.43;99389.78;5050329;28;20028;-44
2022/07/28 07:27:56;;;;;;;10.93;6.47;;;;;;;38.13;27.95;99387.84;5050294;28;20036;-45
2022/07/28 07:30:21;;;;;;;9.07;6.57;;;;;;;38.41;27.57;99392.53;5049950;28;20025;-45
2022/07/28 07:32:47;;;;;;;9.02;6.00;;;;;;;38.97;27.04;99391.97;5050262;28;20031;-45
2022/07/28 07:35:13;;;;;;;7.35;6.53;;;;;;;39.21;26.18;99382.72;5048656;28;20051;-42
2022/07/28 07:37:38;;;;;;;10.75;6.53;;;;;;;39.01;25.86;99395.53;5050019;28;20032;-45
2022/07/28 07:40:05;;;;;;;8.85;7.00;;;;;;;38.91;26.21;99389.59;5049589;28;20028;-45
2022/07/28 07:42:30;;;;;;;9.63;7.57;;;;;;;38.65;26.49;99393.69;5049668;28;20036;-44
2022/07/28 07:44:55;;;;;;;10.88;8.85;;;;;;;38.79;26.30;99395.63;5049937;28;20405;-43
2022/07/28 07:47:21;;;;;;;10.30;6.55;;;;;;;39.40;25.92;99402.88;5050380;28;20085;-44
2022/07/28 07:49:46;;;;;;;6.85;6.13;;;;;;;39.05;26.52;99401.88;5049513;28;20420;-44
2022/07/28 07:52:13;;;;;;;8.95;6.28;;;;;;;39.10;26.86;99405.03;5047701;28;20423;-44
2022/07/28 07:54:38;;;;;;;7.65;6.43;;;;;;;38.96;26.18;99404.31;5049542;28;20032;-43
2022/07/28 07:57:04;;;;;;;9.00;6.50;;;;;;;39.04;25.63;99397.53;5049532;28;20017;-45
2022/07/28 07:59:29;;;;;;;11.20;6.95;;;;;;;40.29;24.09;99400.59;5049665;28;20116;-43
2022/07/28 08:01:55;;;;;;;6.50;5.90;;;;;;;39.78;24.68;99395.47;5049576;28;20280;-43
2022/07/28 08:04:21;;;;;;;9.50;7.18;;;;;;;39.08;26.19;99395.50;5049536;28;20037;-43
2022/07/28 08:06:47;;;;;;;7.45;6.05;;;;;;;39.04;25.68;99403.09;5049335;28;20036;-42
2022/07/28 08:09:14;;;;;;;7.03;6.07;;;;;;;38.97;25.61;99398.31;5053184;28;20094;-47
2022/07/28 08:11:39;;;;;;;6.88;5.85;;;;;;;39.54;24.56;99394.44;5053617;28;20057;-44
2022/07/28 08:14:05;;;;;;;9.50;6.00;;;;;;;39.53;24.27;99392.88;5053279;28;20412;-43
2022/07/28 08:16:30;;;;;;;6.90;6.30;;;;;;;38.91;25.03;99392.38;5053635;28;20130;-47
2022/07/28 08:18:57;;;;;;;7.18;6.47;;;;;;;38.55;25.65;99402.84;5052002;28;20039;-45
2022/07/28 08:21:24;;;;;;;8.43;6.20;;;;;;;39.00;25.19;99394.75;5053357;28;20100;-44
2022/07/28 08:23:50;;;;;;;9.38;6.40;;;;;;;39.32;25.43;99398.53;5052935;28;20427;-45
2022/07/28 08:26:15;;;;;;;9.00;6.82;;;;;;;40.35;24.32;99398.97;5053531;28;20121;-46
2022/07/28 08:28:41;;;;;;;7.35;6.20;;;;;;;39.74;24.87;99393.91;5052911;28;20036;-44
2022/07/28 08:31:06;;;;;;;12.38;6.45;;;;;;;38.24;27.00;99404.50;5053284;28;20027;-43
2022/07/28 08:33:31;;;;;;;10.32;6.82;;;;;;;37.68;27.39;99393.78;5050187;28;20393;-43
2022/07/28 08:35:57;;;;;;;7.07;5.93;;;;;;;38.35;26.88;99396.94;5052827;28;20020;-44
2022/07/28 08:38:22;;;;;;;8.43;6.32;;;;;;;38.77;26.17;99400.00;5052989;28;20051;-45
2022/07/28 08:40:50;;;;;;;11.70;6.20;;;;;;;39.23;25.86;99399.78;5052745;28;20029;-44
2022/07/28 08:43:32;;;;;;;8.73;6.88;;;;;;;38.56;25.63;99406.41;5052764;28;20405;-43
2022/07/28 08:46:03;;;;;;;8.52;6.38;;;;;;;38.05;26.74;99395.34;5052638;28;20106;-44
2022/07/28 08:48:30;;;;;;;6.88;6.18;;;;;;;37.90;27.33;99388.22;5052865;28;20033;-44
2022/07/28 08:51:05;;;;;;;10.90;6.60;;;;;;;38.07;26.66;99395.78;5052522;28;20033;-44
2022/07/28 08:53:33;;;;;;;7.05;6.20;;;;;;;38.45;26.26;99398.88;5053100;28;20044;-43
2022/07/28 08:56:03;;;;;;;8.60;6.73;;;;;;;38.18;26.90;99393.00;5052819;28;20029;-45
2022/07/28 08:58:33;;;;;;;8.98;6.30;;;;;;;37.51;27.47;99394.53;5053002;28;20037;-44
2022/07/28 09:00:59;;;;;;;8.10;6.20;;;;;;;37.66;27.74;99393.38;5052867;28;20055;-47
2022/07/28 09:03:26;;;;;;;8.40;6.30;;;;;;;37.56;28.06;99394.13;5052722;28;20049;-44
2022/07/28 09:05:53;;;;;;;10.55;6.43;;;;;;;37.01;28.58;99395.16;5051894;28;20048;-44
2022/07/28 09:08:18;;;;;;;9.68;6.45;;;;;;;37.70;27.82;99388.63;5052306;28;20035;-43
2022/07/28 09:10:45;;;;;;;8.68;6.40;;;;;;;37.55;27.61;99393.34;5052271;28;20049;-45
2022/07/28 09:13:10;;;;;;;8.15;6.30;;;;;;;37.57;27.61;99395.72;5051929;28;20029;-45
2022/07/28 09:15:36;;;;;;;7.78;6.95;;;;;;;36.74;28.25;99397.44;5052025;28;20112;-44
2022/07/28 09:18:02;;;;;;;8.13;6.60;;;;;;;36.69;28.75;99395.84;5052093;28;20389;-46
2022/07/28 09:20:28;;;;;;;8.00;6.95;;;;;;;36.33;28.85;99398.38;5051472;28;20485;-45
2022/07/28 09:22:56;;;;;;;9.20;7.53;;;;;;;36.30;29.01;99398.38;5052217;28;20035;-43
2022/07/28 09:25:22;;;;;;;8.20;7.40;;;;;;;35.92;29.70;99398.44;5052027;28;20544;-43
2022/07/28 09:27:47;;;;;;;8.35;7.53;;;;;;;35.81;29.71;99395.63;5050483;28;20033;-42
2022/07/28 09:30:13;;;;;;;11.02;8.48;;;;;;;35.93;30.29;99397.28;5052284;28;20055;-43
2022/07/28 09:32:38;;;;;;;9.93;8.57;;;;;;;35.88;30.19;99391.31;5051756;28;20033;-43
2022/07/28 09:35:18;;;;;;;9.82;8.80;;;;;;;36.29;29.21;99394.81;5032137;28;20025;-44
2022/07/28 09:37:44;;;;;;;11.27;8.00;;;;;;;36.84;28.37;99398.66;5031987;28;20049;-43
2022/07/28 09:40:10;;;;;;;9.38;7.97;;;;;;;35.95;29.62;99388.59;5031643;28;20029;-42
2022/07/28 09:42:48;;;;;;;8.32;7.50;;;;;;;36.08;29.06;99397.38;5031648;28;20025;-45
2022/07/28 09:45:14;;;;;;;7.78;6.93;;;;;;;36.04;29.24;99382.72;5031781;28;20032;-44
2022/07/28 09:47:40;;;;;;;8.65;6.95;;;;;;;36.38;28.14;99383.38;5031744;28;20021;-44
2022/07/28 09:50:06;;;;;;;7.88;7.18;;;;;;;36.38;27.90;99380.59;5031829;28;20477;-46
2022/07/28 09:52:33;;;;;;;7.38;6.68;;;;;;;36.71;27.63;99384.34;5031884;28;20030;-44
2022/07/28 09:55:06;;;;;;;7.40;6.67;;;;;;;36.19;28.13;99381.66;5031930;28;20076;-44
2022/07/28 09:57:34;;;;;;;8.48;6.90;;;;;;;36.77;27.12;99382.81;5031781;28;20049;-44
2022/07/28 10:00:00;;;;;;;7.15;6.22;;;;;;;37.09;26.83;99382.94;5032064;28;20112;-45
2022/07/28 10:02:32;;;;;;;8.05;6.50;;;;;;;37.10;26.39;99378.16;5031639;28;20053;-43
2022/07/28 10:04:59;;;;;;;7.20;6.43;;;;;;;37.52;26.03;99371.91;5031449;28;20446;-44
2022/07/28 10:07:27;;;;;;;8.35;6.15;;;;;;;37.35;26.78;99362.38;5031674;28;20024;-44
2022/07/28 10:10:06;;;;;;;;;;;;;;;38.04;25.75;99379.09;5031815;28;20034;-43
2022/07/28 10:12:33;;;;;;;10.90;6.45;;;;;;;36.66;27.73;99371.66;5031294;28;20031;-43
2022/07/28 10:18:00;;;;;;;6.82;5.95;;;;;;;37.03;26.87;99364.28;5051491;28;20120;-44
2022/07/28 10:20:31;;;;;;;10.35;6.18;;;;;;;37.34;26.66;99362.81;5051189;28;20021;-44
2022/07/28 10:23:01;;;;;;;6.95;6.10;;;;;;;37.39;26.87;99364.38;5050693;28;20029;-44
2022/07/28 10:25:29;;;;;;;7.97;6.40;;;;;;;36.87;27.23;99359.88;5051006;28;20021;-43
2022/07/28 10:27:58;;;;;;;7.13;6.30;;;;;;;36.82;28.18;99351.94;5051323;28;20449;-42
2022/07/28 10:30:26;;;;;;;9.77;6.40;;;;;;;36.94;28.34;99351.59;5050686;28;20103;-43
2022/07/28 10:32:54;;;;;;;9.23;6.47;;;;;;;36.89;27.05;99345.63;5050729;28;20416;-42
2022/07/28 10:35:20;;;;;;;9.32;5.53;;;;;;;36.38;28.94;99347.34;5050935;28;20021;-43
2022/07/28 10:38:02;;;;;;;8.32;6.35;;;;;;;36.50;28.28;99341.50;5050864;28;20068;-42
2022/07/28 10:40:35;;;;;;;6.90;6.20;;;;;;;36.70;27.41;99336.44;5049801;28;20114;-44
2022/07/28 10:43:01;;;;;;;7.00;6.30;;;;;;;36.11;27.44;99327.41;5050951;28;20032;-45
2022/07/28 10:45:27;;;;;;;8.02;6.13;;;;;;;35.86;27.88;99335.53;5049457;28;20033;-43
2022/07/28 10:47:53;;;;;;;8.60;5.78;;;;;;;35.70;27.25;99331.09;5050642;28;20039;-43
2022/07/28 10:50:20;;;;;;;9.05;6.15;;;;;;;35.81;27.93;99329.19;5050632;28;20409;-43
2022/07/28 10:52:47;;;;;;;9.32;6.20;;;;;;;36.02;27.69;99330.50;5050353;28;20044;-44
2022/07/28 10:55:27;;;;;;;6.78;6.05;;;;;;;35.83;27.71;99334.31;5050104;28;20037;-35
2022/07/28 10:58:18;;;;;;;7.82;5.90;;;;;;;35.96;28.36;99330.06;5050865;28;20445;-36
2022/07/28 11:00:51;;;;;;;9.77;5.68;;;;;;;36.25;27.44;99321.19;5050551;28;20028;-36
2022/07/28 11:03:38;;;;;;;6.10;5.40;;;;;;;35.56;28.67;99322.63;5050156;28;20032;-36
2022/07/28 11:06:23;;;;;;;7.35;5.50;;;;;;;35.93;27.35;99324.50;5049380;28;20434;-37
2022/07/28 11:08:49;;;;;;;7.72;5.30;;;;;;;35.86;26.99;99336.34;5050312;28;20027;-37
2022/07/28 11:11:44;;;;;;;7.38;5.40;;;;;;;36.18;26.69;99328.28;5050201;28;20064;-37
2022/07/28 11:14:22;;;;;;;8.23;5.45;;;;;;;35.83;27.34;99342.63;5050363;28;20025;-37
2022/07/28 11:16:48;;;;;;;9.02;5.10;;;;;;;36.30;26.86;99332.69;5050067;28;20092;-36
2022/07/28 11:19:15;;;;;;;7.20;5.15;;;;;;;36.34;26.14;99316.88;5050474;28;20104;-38
2022/07/28 11:22:13;;;;;;;9.80;6.07;;;;;;;36.55;25.81;99321.72;5048347;28;20449;-37
2022/07/28 11:24:56;;;;;;;8.85;5.20;;;;;;;35.85;27.08;99312.59;5047813;28;20152;-37
2022/07/28 11:27:44;;;;;;;12.07;5.40;;;;;;;36.46;26.88;99317.72;5049907;28;20088;-37
2022/07/28 11:30:11;;;;;;;6.90;5.13;;;;;;;35.91;27.50;99322.16;5050334;28;20044;-37
2022/07/28 11:32:48;;;;;;;6.07;5.47;;;;;;;36.20;26.19;99309.28;5050365;28;20040;-37
2022/07/28 11:35:14;;;;;;;8.65;5.47;;;;;;;36.43;25.60;99301.91;5049662;28;20033;-37
2022/07/28 11:38:02;;;;;;;6.70;5.35;;;;;;;36.55;25.88;99296.78;5050058;28;20032;-35
2022/07/28 11:40:32;;;;;;;6.93;5.40;;;;;;;37.16;24.85;99304.53;5050372;28;20044;-36